Costa Atlantica — IBLQ — position and weather

sailwx.info

Track history (hours):
 
Tides and Currents Weather Stations Pressure Air Temp Water Temp Dewpoint Dewpoint Depression Visibility Wind Speed Wind Dir Waves Ship Positions

Costa Atlantica (Italy)

Last reported at 2019-Jul-16 10:01 UTC. Time now 2019-Jul-16 10:07 UTC.
Position N 25°17' E 121°06'.

Length 292 m; draft 8 m.

Type: Ship. MMSI: 247595017.

Date/timePositionNaut miles runAvg speedWind from/ knotsBaromVisibWave heightAir tempDewpointWater temp
2019-Jul-16 10:01N 25°17' E 121°06'1019.9
2019-Jul-16 09:31N 25°14' E 120°55'1220.5
2019-Jul-16 08:54N 25°11' E 120°42'42018.6
2019-Jul-15 10:18N 22°05' E 113°50'1212.2
2019-Jul-15 09:21N 22°17' E 113°48'514.9
2019-Jul-15 09:01N 22°22' E 113°50'1 0.1
2019-Jul-14 23:48N 22°23' E 113°50'515.5
2019-Jul-14 23:30N 22°19' E 113°48'715.0
2019-Jul-14 23:01N 22°12' E 113°50'611.7
2019-Jul-14 22:30N 22°06' E 113°51'612.1
2019-Jul-14 22:00N 21°60' E 113°52'917.8
2019-Jul-14 21:30N 21°51' E 113°51'1118.0
2019-Jul-14 20:54N 21°40' E 113°49'46114.1
2019-Jul-13 12:10N 16°07' E 108°13'0 0.4
2019-Jul-13 11:58N 16°07' E 108°13'0 0.0
2019-Jul-13 11:25N 16°07' E 108°13'0 0.0
2019-Jul-13 10:58N 16°07' E 108°13'0 0.0
2019-Jul-13 10:28N 16°07' E 108°13'0 0.0
2019-Jul-13 09:58N 16°07' E 108°13'0 0.0
2019-Jul-13 09:30N 16°07' E 108°13'0 0.0
2019-Jul-13 08:58N 16°07' E 108°13'0 0.0
2019-Jul-13 08:25N 16°07' E 108°13'0 0.0
2019-Jul-13 07:58N 16°07' E 108°13'0 0.0
2019-Jul-13 07:28N 16°07' E 108°13'0 0.0
2019-Jul-13 07:00N 16°07' E 108°13'0 0.0
2019-Jul-13 06:30N 16°07' E 108°13'0 0.0
2019-Jul-13 06:00N 16°07' E 108°13'0 0.0
2019-Jul-13 05:19N 16°07' E 108°13'0 0.0
2019-Jul-13 04:55N 16°07' E 108°13'0 0.0
2019-Jul-13 04:28N 16°07' E 108°13'0 0.0
2019-Jul-13 03:58N 16°07' E 108°13'0 0.0
2019-Jul-13 03:28N 16°07' E 108°13'0 0.0
2019-Jul-13 02:58N 16°07' E 108°13'0 0.0
2019-Jul-13 02:28N 16°07' E 108°13'0 0.0
2019-Jul-13 01:58N 16°07' E 108°13'0 0.0
2019-Jul-13 01:28N 16°07' E 108°13'0 0.0
2019-Jul-13 00:58N 16°07' E 108°13'1 1.1
2019-Jul-13 00:15N 16°08' E 108°12'0 1.8
2019-Jul-13 00:00N 16°08' E 108°12'1110.8
2019-Jul-12 22:59N 16°17' E 108°19'44212.7
2019-Jul-11 12:11N 21°32' E 113°47'611.2
2019-Jul-11 11:41N 21°38' E 113°48'1312.4
2019-Jul-11 10:40N 21°50' E 113°51'1511.9
2019-Jul-11 09:24N 22°05' E 113°51'5 9.3
2019-Jul-11 08:49N 22°10' E 113°50'715.6
2019-Jul-11 08:24N 22°17' E 113°48'614.3
2019-Jul-11 08:00N 22°22' E 113°50'7 0.9
2019-Jul-11 00:06N 22°28' E 113°54'0 0.0
2019-Jul-11 00:00N 22°28' E 113°54'0 0.0
2019-Jul-10 23:30N 22°28' E 113°54'7 7.0
2019-Jul-10 22:35N 22°23' E 113°50'115.3
2019-Jul-10 22:31N 22°22' E 113°50'1114.8
2019-Jul-10 21:47N 22°11' E 113°50'414.8
2019-Jul-10 21:30N 22°07' E 113°51'5 9.5
2019-Jul-10 21:01N 22°03' E 113°51'1416.7
2019-Jul-10 20:11N 21°49' E 113°53'314.8
2019-Jul-10 20:00N 21°47' E 113°54'  
2019-Jul-08 13:17N 14°30' E 120°48'413.8
2019-Jul-08 12:58N 14°32' E 120°53'612.1
2019-Jul-08 12:30N 14°34' E 120°58'2 0.2
2019-Jul-07 23:57N 14°32' E 120°56'511.4
2019-Jul-07 23:30N 14°31' E 120°51'713.7
2019-Jul-07 23:00N 14°28' E 120°45'  
Track history (hours):
 
Tides and Currents Weather Stations Pressure Air Temp Water Temp Dewpoint Dewpoint Depression Visibility Wind Speed Wind Dir Waves Ship Positions

Costa Atlantica (Italy)

Last reported at 2019-Jul-16 10:01 UTC. Time now 2019-Jul-16 10:07 UTC.
Position N 25°17' E 121°06'.

Length 292 m; draft 8 m.

Type: Ship. MMSI: 247595017.

Date/timePositionNaut miles runAvg speedWind from/ knotsBaromVisibWave heightAir tempDewpointWater temp
2019-Jul-16 10:01N 25°17' E 121°06'1019.9
2019-Jul-16 09:31N 25°14' E 120°55'1220.5
2019-Jul-16 08:54N 25°11' E 120°42'42018.6
2019-Jul-15 10:18N 22°05' E 113°50'1212.2
2019-Jul-15 09:21N 22°17' E 113°48'514.9
2019-Jul-15 09:01N 22°22' E 113°50'1 0.1
2019-Jul-14 23:48N 22°23' E 113°50'515.5
2019-Jul-14 23:30N 22°19' E 113°48'715.0
2019-Jul-14 23:01N 22°12' E 113°50'611.7
2019-Jul-14 22:30N 22°06' E 113°51'612.1
2019-Jul-14 22:00N 21°60' E 113°52'917.8
2019-Jul-14 21:30N 21°51' E 113°51'1118.0
2019-Jul-14 20:54N 21°40' E 113°49'46114.1
2019-Jul-13 12:10N 16°07' E 108°13'0 0.4
2019-Jul-13 11:58N 16°07' E 108°13'0 0.0
2019-Jul-13 11:25N 16°07' E 108°13'0 0.0
2019-Jul-13 10:58N 16°07' E 108°13'0 0.0
2019-Jul-13 10:28N 16°07' E 108°13'0 0.0
2019-Jul-13 09:58N 16°07' E 108°13'0 0.0
2019-Jul-13 09:30N 16°07' E 108°13'0 0.0
2019-Jul-13 08:58N 16°07' E 108°13'0 0.0
2019-Jul-13 08:25N 16°07' E 108°13'0 0.0
2019-Jul-13 07:58N 16°07' E 108°13'0 0.0
2019-Jul-13 07:28N 16°07' E 108°13'0 0.0
2019-Jul-13 07:00N 16°07' E 108°13'0 0.0
2019-Jul-13 06:30N 16°07' E 108°13'0 0.0
2019-Jul-13 06:00N 16°07' E 108°13'0 0.0
2019-Jul-13 05:19N 16°07' E 108°13'0 0.0
2019-Jul-13 04:55N 16°07' E 108°13'0 0.0
2019-Jul-13 04:28N 16°07' E 108°13'0 0.0
2019-Jul-13 03:58N 16°07' E 108°13'0 0.0
2019-Jul-13 03:28N 16°07' E 108°13'0 0.0
2019-Jul-13 02:58N 16°07' E 108°13'0 0.0
2019-Jul-13 02:28N 16°07' E 108°13'0 0.0
2019-Jul-13 01:58N 16°07' E 108°13'0 0.0
2019-Jul-13 01:28N 16°07' E 108°13'0 0.0
2019-Jul-13 00:58N 16°07' E 108°13'1 1.1
2019-Jul-13 00:15N 16°08' E 108°12'0 1.8
2019-Jul-13 00:00N 16°08' E 108°12'1110.8
2019-Jul-12 22:59N 16°17' E 108°19'44212.7
2019-Jul-11 12:11N 21°32' E 113°47'611.2
2019-Jul-11 11:41N 21°38' E 113°48'1312.4
2019-Jul-11 10:40N 21°50' E 113°51'1511.9
2019-Jul-11 09:24N 22°05' E 113°51'5 9.3
2019-Jul-11 08:49N 22°10' E 113°50'715.6
2019-Jul-11 08:24N 22°17' E 113°48'614.3
2019-Jul-11 08:00N 22°22' E 113°50'7 0.9
2019-Jul-11 00:06N 22°28' E 113°54'0 0.0
2019-Jul-11 00:00N 22°28' E 113°54'0 0.0
2019-Jul-10 23:30N 22°28' E 113°54'7 7.0
2019-Jul-10 22:35N 22°23' E 113°50'115.3
2019-Jul-10 22:31N 22°22' E 113°50'1114.8
2019-Jul-10 21:47N 22°11' E 113°50'414.8
2019-Jul-10 21:30N 22°07' E 113°51'5 9.5
2019-Jul-10 21:01N 22°03' E 113°51'1416.7
2019-Jul-10 20:11N 21°49' E 113°53'314.8
2019-Jul-10 20:00N 21°47' E 113°54'  
2019-Jul-08 13:17N 14°30' E 120°48'413.8
2019-Jul-08 12:58N 14°32' E 120°53'612.1
2019-Jul-08 12:30N 14°34' E 120°58'2 0.2
2019-Jul-07 23:57N 14°32' E 120°56'511.4
2019-Jul-07 23:30N 14°31' E 120°51'713.7
2019-Jul-07 23:00N 14°28' E 120°45'  

Dump ship's entire track history